createdAt,value
2019-03-31T00:01:53.959Z,22.73
2019-03-31T00:04:23.797Z,22.50
2019-03-31T00:06:53.686Z,21.83
2019-03-31T00:09:24.047Z,19.93
2019-03-31T00:11:53.952Z,23.50
2019-03-31T00:14:23.881Z,21.87
2019-03-31T00:16:53.760Z,24.07
2019-03-31T00:19:23.590Z,22.30
2019-03-31T00:21:54.517Z,24.53
2019-03-31T00:24:24.421Z,22.80
2019-03-31T00:26:54.273Z,22.97
2019-03-31T00:29:24.162Z,25.63
2019-03-31T00:31:53.989Z,21.90
2019-03-31T00:34:23.864Z,21.93
2019-03-31T00:36:53.752Z,20.50
2019-03-31T00:39:23.593Z,24.50
2019-03-31T00:41:53.514Z,22.03
2019-03-31T00:44:23.475Z,23.33
2019-03-31T00:46:53.305Z,21.50
2019-03-31T00:49:23.202Z,20.77
2019-03-31T00:51:53.046Z,23.10
2019-03-31T00:54:22.913Z,22.40
2019-03-31T00:56:52.828Z,22.93
2019-03-31T00:59:22.711Z,22.80
2019-03-31T01:01:56.310Z,22.97
2019-03-31T01:04:29.981Z,22.20
2019-03-31T01:07:00.383Z,21.00
2019-03-31T01:09:32.465Z,22.27
2019-03-31T01:12:05.177Z,20.03
2019-03-31T01:14:35.410Z,19.20
2019-03-31T01:17:08.773Z,19.63
2019-03-31T01:19:39.019Z,20.73
2019-03-31T01:22:09.093Z,20.47
2019-03-31T01:24:38.936Z,20.50
2019-03-31T01:27:11.026Z,19.50
2019-03-31T01:29:41.713Z,20.23
2019-03-31T01:32:12.233Z,18.47
2019-03-31T01:34:42.569Z,19.73
2019-03-31T01:37:12.906Z,19.47
2019-03-31T01:39:42.746Z,19.63
2019-03-31T01:42:12.651Z,20.27
2019-03-31T01:44:42.921Z,20.67
2019-03-31T01:47:12.924Z,19.17
2019-03-31T01:49:42.850Z,19.37
2019-03-31T01:52:12.765Z,21.27
2019-03-31T01:54:42.624Z,22.40
2019-03-31T01:57:12.520Z,20.40
2019-03-31T01:59:42.460Z,22.73
2019-03-31T02:02:16.553Z,23.90
2019-03-31T02:04:46.430Z,20.53
2019-03-31T02:07:16.270Z,23.23
2019-03-31T02:09:46.157Z,20.73
2019-03-31T02:12:16.078Z,23.37
2019-03-31T02:14:45.934Z,21.73
2019-03-31T02:17:15.823Z,22.60
2019-03-31T02:19:45.677Z,22.97
2019-03-31T02:22:15.848Z,21.33
2019-03-31T02:24:45.741Z,21.53
2019-03-31T02:27:15.571Z,21.23
2019-03-31T02:29:45.489Z,23.93
2019-03-31T02:32:23.975Z,24.43
2019-03-31T02:34:47.285Z,20.10
2019-03-31T02:37:17.219Z,20.43
2019-03-31T02:39:47.127Z,19.63
2019-03-31T02:42:16.966Z,21.33
2019-03-31T02:44:46.906Z,20.47
2019-03-31T02:47:16.796Z,21.90
2019-03-31T02:49:46.702Z,18.80
2019-03-31T02:52:16.592Z,16.90
2019-03-31T02:54:47.015Z,17.40
2019-03-31T02:57:19.082Z,17.37
2019-03-31T02:59:50.838Z,17.53
2019-03-31T03:02:40.129Z,17.63
2019-03-31T03:04:57.080Z,16.97
2019-03-31T03:07:29.564Z,16.83
2019-03-31T03:10:01.553Z,20.10
2019-03-31T03:12:35.315Z,17.37
2019-03-31T03:15:07.192Z,15.87
2019-03-31T03:17:37.106Z,16.27
2019-03-31T03:20:07.712Z,15.43
2019-03-31T03:22:37.613Z,18.50
2019-03-31T03:25:07.980Z,18.53
2019-03-31T03:27:37.821Z,18.50
2019-03-31T03:30:07.919Z,16.40
2019-03-31T03:32:37.977Z,19.67
2019-03-31T03:35:08.490Z,16.27
2019-03-31T03:37:38.437Z,16.40
2019-03-31T03:40:09.351Z,15.43
2019-03-31T03:42:39.278Z,16.13
2019-03-31T03:45:09.510Z,16.30
2019-03-31T03:47:39.397Z,16.07
2019-03-31T03:50:09.279Z,17.30
2019-03-31T03:52:39.152Z,15.93
2019-03-31T03:55:09.202Z,16.07
2019-03-31T03:57:39.161Z,18.03
2019-03-31T04:00:09.874Z,18.97
2019-03-31T04:02:39.757Z,17.40
2019-03-31T04:05:09.595Z,15.23
2019-03-31T04:07:39.470Z,16.33
2019-03-31T04:10:30.605Z,16.63
2019-03-31T04:13:00.497Z,17.27
2019-03-31T04:15:30.466Z,16.37
2019-03-31T04:18:00.295Z,15.97
2019-03-31T04:20:30.382Z,16.33
2019-03-31T04:23:00.219Z,16.53
2019-03-31T04:25:30.059Z,17.50
2019-03-31T04:28:00.042Z,15.13
2019-03-31T04:30:30.895Z,15.80
2019-03-31T04:33:00.848Z,16.30
2019-03-31T04:35:30.800Z,18.40
2019-03-31T04:38:00.698Z,16.07
2019-03-31T04:40:30.594Z,17.90
2019-03-31T04:43:00.506Z,17.30
2019-03-31T04:45:30.400Z,17.60
2019-03-31T04:48:00.231Z,16.37
2019-03-31T04:50:30.149Z,16.47
2019-03-31T04:53:00.072Z,17.47
2019-03-31T04:55:29.914Z,15.37
2019-03-31T04:57:59.793Z,17.73
2019-03-31T05:00:29.629Z,15.47
2019-03-31T05:02:59.518Z,15.23
2019-03-31T05:05:30.460Z,16.53
2019-03-31T05:08:00.292Z,15.87
2019-03-31T05:10:30.149Z,16.57
2019-03-31T05:13:00.027Z,16.60
2019-03-31T05:15:29.858Z,18.67
2019-03-31T05:17:59.753Z,15.37
2019-03-31T05:20:29.637Z,16.30
2019-03-31T05:22:59.529Z,15.40
2019-03-31T05:25:29.422Z,15.30
2019-03-31T05:27:59.257Z,15.83
2019-03-31T05:30:29.097Z,15.47
2019-03-31T05:32:59.034Z,16.47
2019-03-31T05:35:28.916Z,29.90
2019-03-31T05:37:58.797Z,19.77
2019-03-31T05:40:30.729Z,18.37
2019-03-31T05:43:00.262Z,16.90
2019-03-31T05:45:30.097Z,16.43
2019-03-31T05:47:59.987Z,17.73
2019-03-31T05:50:29.969Z,24.47
2019-03-31T05:53:00.177Z,19.50
2019-03-31T05:55:30.110Z,18.07
2019-03-31T05:57:59.974Z,16.20
2019-03-31T06:00:34.555Z,21.47
2019-03-31T06:03:04.444Z,23.70
2019-03-31T06:05:34.341Z,18.87
2019-03-31T06:08:04.313Z,18.20
2019-03-31T06:10:34.857Z,26.60
2019-03-31T06:13:04.770Z,22.60
2019-03-31T06:15:34.654Z,50.30
2019-03-31T06:18:04.941Z,36.27
2019-03-31T06:20:34.835Z,28.30
2019-03-31T06:23:05.143Z,20.27
2019-03-31T06:25:34.987Z,18.40
2019-03-31T06:28:04.878Z,18.87
2019-03-31T06:30:34.745Z,19.20
2019-03-31T06:33:06.715Z,18.67
2019-03-31T06:35:36.558Z,25.00
2019-03-31T06:38:06.473Z,20.50
2019-03-31T06:40:36.395Z,20.17
2019-03-31T06:43:07.271Z,19.47
2019-03-31T06:45:37.149Z,23.33
2019-03-31T06:48:07.125Z,17.80
2019-03-31T06:50:36.978Z,17.23
2019-03-31T06:53:06.975Z,17.50
2019-03-31T06:55:36.913Z,16.87
2019-03-31T06:58:07.917Z,16.90
2019-03-31T07:00:37.777Z,16.60
2019-03-31T07:03:08.727Z,16.87
2019-03-31T07:05:38.621Z,16.33
2019-03-31T07:08:08.580Z,17.43
2019-03-31T07:10:39.478Z,18.47
2019-03-31T07:13:09.436Z,17.83
2019-03-31T07:15:39.513Z,16.67
2019-03-31T07:18:09.589Z,16.60
2019-03-31T07:20:39.485Z,16.47
2019-03-31T07:23:09.489Z,17.00
2019-03-31T07:25:39.429Z,17.07
2019-03-31T07:28:09.394Z,15.23
2019-03-31T07:30:39.449Z,15.97
2019-03-31T07:33:09.321Z,15.23
2019-03-31T07:35:39.395Z,15.30
2019-03-31T07:38:09.416Z,15.27
2019-03-31T07:40:39.689Z,15.67
2019-03-31T07:43:10.225Z,15.57
2019-03-31T07:45:40.326Z,15.43
2019-03-31T07:48:10.306Z,16.57
2019-03-31T07:50:40.162Z,15.17
2019-03-31T07:53:10.145Z,16.47
2019-03-31T07:55:41.038Z,16.50
2019-03-31T07:58:10.973Z,15.83
2019-03-31T08:00:41.012Z,16.77
2019-03-31T08:03:10.926Z,24.47
2019-03-31T08:05:40.834Z,16.57
2019-03-31T08:08:10.721Z,17.30
2019-03-31T08:10:41.718Z,22.33
2019-03-31T08:13:11.717Z,17.77
2019-03-31T08:15:41.561Z,15.33
2019-03-31T08:18:11.521Z,14.67
2019-03-31T08:20:41.422Z,15.27
2019-03-31T08:23:11.368Z,15.57
2019-03-31T08:25:41.341Z,16.40
2019-03-31T08:28:11.315Z,15.20
2019-03-31T08:30:41.262Z,15.53
2019-03-31T08:33:11.266Z,15.97
2019-03-31T08:35:47.143Z,15.83
2019-03-31T08:38:12.862Z,16.43
2019-03-31T08:40:43.932Z,16.20
2019-03-31T08:43:14.877Z,15.73
2019-03-31T08:45:44.812Z,15.80
2019-03-31T08:48:14.771Z,17.43
2019-03-31T08:50:44.730Z,17.03
2019-03-31T08:53:14.638Z,17.03
2019-03-31T08:55:44.565Z,15.63
2019-03-31T08:58:15.451Z,15.83
2019-03-31T09:00:48.941Z,17.30
2019-03-31T09:03:19.075Z,15.97
2019-03-31T09:06:00.928Z,17.57
2019-03-31T09:08:21.414Z,15.70
2019-03-31T09:10:51.417Z,16.33
2019-03-31T09:13:22.365Z,16.43
2019-03-31T09:15:52.325Z,18.20
2019-03-31T09:18:22.219Z,16.23
2019-03-31T09:20:52.244Z,15.83
2019-03-31T09:23:22.176Z,16.27
2019-03-31T09:25:53.273Z,17.97
2019-03-31T09:28:23.170Z,16.70
2019-03-31T09:30:53.001Z,15.13
2019-03-31T09:33:22.876Z,16.27
2019-03-31T09:35:52.781Z,16.73
2019-03-31T09:38:22.717Z,15.70
2019-03-31T09:40:53.785Z,17.77
2019-03-31T09:43:23.678Z,20.73
2019-03-31T09:45:53.524Z,16.20
2019-03-31T09:48:24.582Z,23.80
2019-03-31T09:50:56.594Z,17.10
2019-03-31T09:53:26.209Z,16.43
2019-03-31T09:55:57.159Z,25.93
2019-03-31T09:58:28.240Z,18.20
2019-03-31T10:00:58.201Z,19.57
2019-03-31T10:03:28.095Z,18.13
2019-03-31T10:06:10.069Z,18.10
2019-03-31T10:08:30.134Z,16.93
2019-03-31T10:11:02.714Z,17.30
2019-03-31T10:13:31.663Z,16.77
2019-03-31T10:16:01.601Z,15.80
2019-03-31T10:18:31.437Z,18.90
2019-03-31T10:21:01.389Z,18.00
2019-03-31T10:23:31.225Z,16.57
2019-03-31T10:26:01.127Z,16.70
2019-03-31T10:28:30.971Z,16.63
2019-03-31T10:31:01.954Z,18.67
2019-03-31T10:33:32.855Z,16.20
2019-03-31T10:36:03.838Z,15.93
2019-03-31T10:38:33.825Z,15.13
2019-03-31T10:41:04.713Z,19.57
2019-03-31T10:43:35.686Z,17.23
2019-03-31T10:46:05.610Z,14.37
2019-03-31T10:48:35.596Z,16.43
2019-03-31T10:51:06.570Z,18.00
2019-03-31T10:53:36.474Z,15.90
2019-03-31T10:56:06.381Z,16.03
2019-03-31T10:58:36.273Z,15.90
2019-03-31T11:01:06.170Z,16.57
2019-03-31T11:03:36.074Z,17.87
2019-03-31T11:06:06.144Z,16.07
2019-03-31T11:08:36.040Z,14.33
2019-03-31T11:11:05.937Z,13.67
2019-03-31T11:13:35.904Z,14.53
2019-03-31T11:16:06.789Z,13.70
2019-03-31T11:18:36.718Z,14.27
2019-03-31T11:21:13.234Z,13.83
2019-03-31T11:23:43.136Z,14.00
2019-03-31T11:26:13.149Z,14.67
2019-03-31T11:28:43.113Z,14.67
2019-03-31T11:31:13.184Z,13.67
2019-03-31T11:33:43.213Z,19.20
2019-03-31T11:36:13.066Z,13.00
2019-03-31T11:38:43.170Z,13.47
2019-03-31T11:41:13.094Z,13.67
2019-03-31T11:43:43.013Z,11.77
2019-03-31T11:46:12.980Z,15.60
2019-03-31T11:48:43.914Z,14.47
2019-03-31T11:51:13.838Z,12.83
2019-03-31T11:53:43.701Z,13.33
2019-03-31T11:56:14.713Z,13.27
2019-03-31T11:58:44.652Z,13.60
2019-03-31T12:01:15.669Z,13.27
2019-03-31T12:03:45.601Z,15.27
2019-03-31T12:06:15.712Z,14.10
2019-03-31T12:08:45.850Z,12.93
2019-03-31T12:11:16.733Z,12.50
2019-03-31T12:13:47.627Z,12.37
2019-03-31T12:16:19.542Z,12.17
2019-03-31T12:18:49.468Z,12.47
2019-03-31T12:21:19.321Z,11.77
2019-03-31T12:23:49.260Z,12.10
2019-03-31T12:26:19.281Z,12.60
2019-03-31T12:28:49.434Z,11.80
2019-03-31T12:31:19.283Z,11.83
2019-03-31T12:33:49.202Z,11.90
2019-03-31T12:36:19.282Z,12.57
2019-03-31T12:38:49.120Z,11.90
2019-03-31T12:41:19.114Z,10.50
2019-03-31T12:43:48.987Z,11.10
2019-03-31T12:46:18.945Z,11.23
2019-03-31T12:48:48.967Z,10.43
2019-03-31T12:51:19.413Z,9.40
2019-03-31T12:53:51.102Z,11.17
2019-03-31T12:56:21.046Z,11.20
2019-03-31T12:58:50.953Z,10.17
2019-03-31T13:01:20.976Z,10.93
2019-03-31T13:03:50.886Z,10.37
2019-03-31T13:06:20.760Z,10.87
2019-03-31T13:08:51.754Z,10.33
2019-03-31T13:11:21.609Z,10.47
2019-03-31T13:13:51.521Z,10.15
2019-03-31T13:16:23.468Z,10.30
2019-03-31T13:18:53.709Z,10.50
2019-03-31T13:21:23.626Z,10.03
2019-03-31T13:23:53.584Z,10.70
2019-03-31T13:26:23.614Z,10.80
2019-03-31T13:28:54.503Z,10.63
2019-03-31T13:31:24.526Z,11.40
2019-03-31T13:33:55.392Z,12.53
2019-03-31T13:36:25.341Z,10.50
2019-03-31T13:38:55.283Z,11.20
2019-03-31T13:41:25.199Z,10.37
2019-03-31T13:43:55.060Z,8.87
2019-03-31T13:46:24.969Z,10.27
2019-03-31T13:48:54.809Z,11.03
2019-03-31T13:51:24.893Z,10.57
2019-03-31T13:53:55.430Z,10.43
2019-03-31T13:56:25.941Z,9.83
2019-03-31T13:58:57.445Z,10.77
2019-03-31T14:01:27.385Z,10.13
2019-03-31T14:03:57.349Z,9.20
2019-03-31T14:06:27.217Z,8.88
2019-03-31T14:08:57.166Z,8.15
2019-03-31T14:11:27.153Z,8.80
2019-03-31T14:13:58.159Z,9.68
2019-03-31T14:16:29.222Z,10.28
2019-03-31T14:18:59.286Z,12.75
2019-03-31T14:21:29.267Z,10.03
2019-03-31T14:23:59.229Z,9.08
2019-03-31T14:26:29.132Z,9.40
2019-03-31T14:29:00.079Z,9.13
2019-03-31T14:31:30.102Z,8.35
2019-03-31T14:34:00.421Z,10.93
2019-03-31T14:36:30.682Z,8.35
2019-03-31T14:39:00.656Z,10.45
2019-03-31T14:41:30.481Z,9.75
2019-03-31T14:44:00.398Z,9.43
2019-03-31T14:46:30.240Z,12.07
2019-03-31T14:49:00.109Z,10.27
2019-03-31T14:51:29.937Z,9.60
2019-03-31T14:53:59.806Z,8.63
2019-03-31T14:56:29.697Z,8.17
2019-03-31T14:58:59.681Z,8.83
2019-03-31T15:01:29.541Z,9.50
2019-03-31T15:03:59.541Z,7.87
2019-03-31T15:06:29.976Z,8.43
2019-03-31T15:09:00.560Z,8.63
2019-03-31T15:11:31.220Z,9.50
2019-03-31T15:14:01.882Z,8.83
2019-03-31T15:16:31.788Z,9.00
2019-03-31T15:19:01.637Z,10.47
2019-03-31T15:21:31.583Z,10.40
2019-03-31T15:24:01.415Z,16.67
2019-03-31T15:26:31.377Z,47.70
2019-03-31T15:29:01.337Z,9.17
2019-03-31T15:31:31.187Z,9.20
2019-03-31T15:34:01.147Z,9.60
2019-03-31T15:36:31.017Z,16.77
2019-03-31T15:39:08.623Z,9.60
2019-03-31T15:41:33.609Z,32.93
2019-03-31T15:44:03.561Z,10.70
2019-03-31T15:46:33.524Z,8.50
2019-03-31T15:49:03.624Z,10.10
2019-03-31T15:51:33.478Z,9.37
2019-03-31T15:54:03.453Z,8.07
2019-03-31T15:56:33.341Z,25.83
2019-03-31T15:59:03.410Z,23.30
2019-03-31T16:01:33.339Z,9.07
2019-03-31T16:04:03.290Z,7.50
2019-03-31T16:06:33.259Z,7.77
2019-03-31T16:09:02.694Z,7.77
2019-03-31T16:11:32.108Z,8.23
2019-03-31T16:14:01.546Z,11.17
2019-03-31T16:16:31.041Z,10.40
2019-03-31T16:19:01.185Z,21.53
2019-03-31T16:21:30.620Z,8.80
2019-03-31T16:24:00.993Z,9.37
2019-03-31T16:26:30.338Z,9.10
2019-03-31T16:28:59.704Z,8.60
2019-03-31T16:31:29.053Z,8.13
2019-03-31T16:33:58.612Z,13.17
2019-03-31T16:36:28.198Z,8.37
2019-03-31T16:38:57.778Z,8.97
2019-03-31T16:41:27.205Z,7.47
2019-03-31T16:43:56.728Z,8.20
2019-03-31T16:46:26.090Z,7.47
2019-03-31T16:48:56.456Z,12.47
2019-03-31T16:51:27.849Z,10.70
2019-03-31T16:53:57.201Z,9.73
2019-03-31T16:56:26.713Z,7.23
2019-03-31T16:58:56.060Z,7.73
2019-03-31T17:01:25.428Z,7.57
2019-03-31T17:03:54.876Z,8.47
2019-03-31T17:06:24.253Z,7.20
2019-03-31T17:08:54.552Z,9.33
2019-03-31T17:11:23.909Z,7.20
2019-03-31T17:13:53.300Z,7.50
2019-03-31T17:16:23.682Z,7.27
2019-03-31T17:18:53.433Z,7.07
2019-03-31T17:21:23.025Z,9.37
2019-03-31T17:23:52.667Z,44.23
2019-03-31T17:26:23.041Z,22.47
2019-03-31T17:28:52.346Z,13.17
2019-03-31T17:31:22.700Z,13.00
2019-03-31T17:33:52.066Z,22.37
2019-03-31T17:36:22.446Z,17.47
2019-03-31T17:38:51.848Z,12.40
2019-03-31T17:41:22.429Z,11.47
2019-03-31T17:43:51.730Z,10.17
2019-03-31T17:46:21.088Z,13.67
2019-03-31T17:48:50.443Z,10.93
2019-03-31T17:51:19.877Z,9.40
2019-03-31T17:53:49.289Z,9.30
2019-03-31T17:56:18.693Z,9.40
2019-03-31T17:58:49.182Z,10.70
2019-03-31T18:01:20.098Z,9.17
2019-03-31T18:03:50.472Z,12.20
2019-03-31T18:06:19.826Z,10.53
2019-03-31T18:08:49.194Z,9.47
2019-03-31T18:11:18.537Z,9.23
2019-03-31T18:13:47.889Z,12.50
2019-03-31T18:16:18.325Z,12.67
2019-03-31T18:18:47.664Z,16.57
2019-03-31T18:21:17.421Z,34.93
2019-03-31T18:23:46.814Z,37.50
2019-03-31T18:26:17.234Z,21.37
2019-03-31T18:28:46.610Z,50.57
2019-03-31T18:31:16.986Z,44.27
2019-03-31T18:33:46.343Z,45.50
2019-03-31T18:36:15.937Z,34.20
2019-03-31T18:38:45.357Z,30.30
2019-03-31T18:41:14.714Z,32.00
2019-03-31T18:43:51.288Z,17.03
2019-03-31T18:46:15.040Z,22.83
2019-03-31T18:48:44.463Z,24.03
2019-03-31T18:51:14.879Z,17.40
2019-03-31T18:54:03.174Z,13.27
2019-03-31T18:56:50.678Z,12.43
2019-03-31T18:59:51.099Z,13.23
2019-03-31T19:02:48.866Z,11.93
2019-03-31T19:05:35.820Z,12.63
2019-03-31T19:08:27.050Z,12.43
2019-03-31T19:11:33.937Z,14.40
2019-03-31T19:14:25.541Z,12.67
2019-03-31T19:17:13.225Z,12.27
2019-03-31T19:20:07.462Z,12.53
2019-03-31T19:22:54.734Z,12.93
2019-03-31T19:25:32.960Z,13.43
2019-03-31T19:28:19.898Z,13.23
2019-03-31T19:31:08.517Z,13.70
2019-03-31T19:34:12.783Z,12.33
2019-03-31T19:37:01.646Z,12.57
2019-03-31T19:39:49.921Z,15.30
2019-03-31T19:42:44.065Z,14.40
2019-03-31T19:45:33.080Z,13.97
2019-03-31T19:48:37.264Z,12.87
2019-03-31T19:51:25.549Z,13.10
2019-03-31T19:54:20.256Z,12.23
2019-03-31T19:57:21.176Z,13.57
2019-03-31T20:00:08.446Z,14.10
2019-03-31T20:02:59.654Z,15.83
2019-03-31T20:05:42.894Z,19.50
2019-03-31T20:08:40.604Z,37.53
2019-03-31T20:11:14.688Z,20.30
2019-03-31T20:14:06.103Z,16.23
2019-03-31T20:16:57.593Z,14.13
2019-03-31T20:19:58.407Z,14.30
2019-03-31T20:22:47.646Z,24.50
2019-03-31T20:25:24.677Z,22.70
2019-03-31T20:28:01.803Z,26.83
2019-03-31T20:31:03.122Z,25.67
2019-03-31T20:34:06.410Z,22.23
2019-03-31T20:36:41.721Z,21.47
2019-03-31T20:39:20.990Z,23.07
2019-03-31T20:41:55.245Z,24.00
2019-03-31T20:44:24.707Z,20.37
2019-03-31T20:46:54.196Z,18.80
2019-03-31T20:49:23.554Z,18.17
2019-03-31T20:51:52.986Z,16.73
2019-03-31T20:54:22.346Z,15.90
2019-03-31T20:56:52.746Z,15.30
2019-03-31T20:59:22.129Z,16.73
2019-03-31T21:01:52.557Z,15.07
2019-03-31T21:04:22.675Z,15.37
2019-03-31T21:06:52.038Z,15.50
2019-03-31T21:09:22.404Z,15.33
2019-03-31T21:11:52.760Z,15.00
2019-03-31T21:14:23.177Z,14.43
2019-03-31T21:16:53.097Z,14.23
2019-03-31T21:19:22.414Z,14.83
2019-03-31T21:21:51.761Z,15.90
2019-03-31T21:24:21.122Z,17.53
2019-03-31T21:26:51.504Z,14.97
2019-03-31T21:29:20.911Z,17.37
2019-03-31T21:31:50.329Z,16.07
2019-03-31T21:34:20.761Z,16.67
2019-03-31T21:36:51.158Z,16.33
2019-03-31T21:39:21.578Z,16.53
2019-03-31T21:41:50.341Z,16.33
2019-03-31T21:44:19.653Z,17.73
2019-03-31T21:46:48.997Z,15.10
2019-03-31T21:49:18.358Z,15.23
2019-03-31T21:51:48.647Z,16.53
2019-03-31T21:54:17.981Z,16.60
2019-03-31T21:56:47.280Z,14.40
2019-03-31T21:59:16.658Z,15.97
2019-03-31T22:01:46.078Z,16.30
2019-03-31T22:04:15.442Z,16.70
2019-03-31T22:06:44.788Z,17.47
2019-03-31T22:09:14.166Z,14.90
2019-03-31T22:11:43.493Z,14.53
2019-03-31T22:14:12.845Z,15.93
2019-03-31T22:16:42.192Z,16.03
2019-03-31T22:19:11.540Z,14.63
2019-03-31T22:21:40.846Z,15.60
2019-03-31T22:24:10.274Z,15.77
2019-03-31T22:26:39.557Z,16.20
2019-03-31T22:29:27.945Z,15.67
2019-03-31T22:31:57.277Z,17.50
2019-03-31T22:34:25.962Z,17.17
2019-03-31T22:36:55.377Z,16.97
2019-03-31T22:39:24.686Z,15.83
2019-03-31T22:41:54.068Z,15.33
2019-03-31T22:44:23.387Z,16.93
2019-03-31T22:46:54.386Z,16.60
2019-03-31T22:49:23.147Z,17.70
2019-03-31T22:51:52.501Z,17.97
2019-03-31T22:54:21.817Z,18.27
2019-03-31T22:56:51.473Z,18.27
2019-03-31T22:59:20.224Z,20.17
2019-03-31T23:01:49.617Z,21.77
2019-03-31T23:04:18.947Z,17.77
2019-03-31T23:06:48.364Z,19.23
2019-03-31T23:09:17.653Z,19.37
2019-03-31T23:11:47.020Z,20.03
2019-03-31T23:14:16.310Z,18.87
2019-03-31T23:16:45.617Z,19.17
2019-03-31T23:19:14.961Z,19.50
2019-03-31T23:21:44.262Z,19.97
2019-03-31T23:24:13.560Z,19.50
2019-03-31T23:26:42.927Z,20.43
2019-03-31T23:29:12.252Z,21.80
2019-03-31T23:31:41.665Z,20.93
2019-03-31T23:34:11.000Z,22.87
2019-03-31T23:36:39.724Z,23.80
2019-03-31T23:39:09.118Z,24.33
2019-03-31T23:41:38.462Z,23.87
2019-03-31T23:44:07.813Z,23.77
2019-03-31T23:46:37.145Z,23.90
2019-03-31T23:49:06.441Z,23.70
2019-03-31T23:51:35.791Z,26.80
2019-03-31T23:54:05.128Z,24.80
2019-03-31T23:56:33.875Z,27.10
2019-03-31T23:59:03.254Z,27.80
